Flight Track Log - Related Links

Times and Time Zones

All times are in EDT time to prevent confusion due to time zone crossing. See the SWA1729 flight status page for this flight to view local times or setup timezone preferences in your user account.

Time Position Orientation Groundspeed Altitude Reporting Facility
EDT Latitude Longitude Course Direction KTS MPH feet Rate Location/Type
Thu 08:16:38 PM 36.1000 -86.6833 267° West 165 190 1,300  Level Nashville TRACON
Thu 08:17:38 PM 36.0833 -86.7500 253° West 237 273 3,500 2,714 Climbing Nashville TRACON
Thu 08:18:44 PM 36.0833 -86.8500 270° West 274 315 7,000 3,034 Climbing Nashville TRACON
Thu 08:19:05 PM 36.0894 -86.8947 280° West 256 295 7,900 2,519 Climbing Memphis Center
Thu 08:20:05 PM 36.0917 -86.9742 272° West 265 305 10,400 1,800 Climbing Memphis Center
Thu 08:21:05 PM 36.0925 -87.0847 271° West 291 335 11,500 1,800 Climbing Memphis Center
Thu 08:22:00 PM 35.8227 -89.1033 267° West  Level FlightAware Approximate
Thu 08:22:05 PM 36.0975 -87.2000 273° West 326 375 14,000  Level Memphis Center
Thu 08:23:05 PM 36.0903 -87.3236 266° West 354 407 15,800 2,300 Climbing Memphis Center
Thu 08:24:05 PM 36.0822 -87.4317 265° West 359 413 18,600 2,550 Climbing Memphis Center
Thu 08:25:05 PM 36.0744 -87.5450 265° West 352 405 20,900 1,850 Climbing Memphis Center
Thu 08:26:05 PM 36.0667 -87.6608 265° West 346 398 22,300 1,600 Climbing Memphis Center
Thu 08:27:05 PM 36.0567 -87.7819 264° West 352 405 24,100 1,550 Climbing Memphis Center
Thu 08:28:05 PM 36.0486 -87.9003 265° West 352 405 25,400 1,150 Climbing Memphis Center
Thu 08:29:05 PM 36.0386 -88.0314 265° West 352 405 26,400 1,150 Climbing Memphis Center
Thu 08:30:05 PM 36.0325 -88.1497 266° West 352 405 27,700 1,100 Climbing Memphis Center
Thu 08:31:05 PM 36.0200 -88.2758 263° West 352 405 28,600 750 Climbing Memphis Center
Thu 08:32:05 PM 36.0075 -88.4017 263° West 357 411 29,200 800 Climbing Memphis Center
Thu 08:33:05 PM 35.9969 -88.5278 264° West 368 423 30,200 1,100 Climbing Memphis Center
Thu 08:34:05 PM 35.9864 -88.6536 264° West 374 430 31,400 1,050 Climbing Memphis Center
Thu 08:35:05 PM 35.9756 -88.7822 264° West 374 430 32,300 1,000 Climbing Memphis Center
Thu 08:36:05 PM 35.9644 -88.9056 264° West 374 430 33,400 800 Climbing Memphis Center
Thu 08:37:05 PM 35.9533 -89.0261 264° West 369 425 33,900 300 Climbing Memphis Center
Thu 08:38:05 PM 35.9422 -89.1494 264° West 369 425 34,000 50 Climbing Memphis Center
Thu 08:39:05 PM 35.9328 -89.2753 265° West 369 425 34,000  Level Memphis Center
Thu 08:40:05 PM 35.9192 -89.3983 262° West 369 425 34,000  Level Memphis Center
Thu 08:41:05 PM 35.9097 -89.5242 265° West 369 425 34,000 -400 Level Memphis Center
Thu 08:42:05 PM 35.8981 -89.6522 264° West 369 425 33,200 -800 Descending Memphis Center
Thu 08:43:05 PM 35.8861 -89.7650 263° West 369 425 32,400 -600 Descending Memphis Center
Thu 08:44:05 PM 35.8761 -89.8933 265° West 374 430 32,000 -200 Descending Memphis Center
Thu 08:45:05 PM 35.8600 -90.0214 261° West 381 438 32,000  Level Memphis Center
Thu 08:46:05 PM 35.8497 -90.1572 265° West 391 450 32,000  Level Memphis Center
Thu 08:47:05 PM 35.8375 -90.2878 263° West 391 450 32,000  Level Memphis Center
Thu 08:48:05 PM 35.8250 -90.4158 263° West 386 444 32,000  Level Memphis Center
Thu 08:49:05 PM 35.8144 -90.5439 264° West 386 444 32,000  Level Memphis Center
Thu 08:50:05 PM 35.7994 -90.6769 262° West 386 444 32,000  Level Memphis Center
Thu 08:51:05 PM 35.7867 -90.8075 263° West 386 444 32,000  Level Memphis Center
Thu 08:52:05 PM 35.7736 -90.9378 263° West 391 450 32,000  Level Memphis Center
Thu 08:53:05 PM 35.7606 -91.0606 263° West 378 435 32,000  Level Memphis Center
Thu 08:54:05 PM 35.7347 -91.1781 255° West 367 422 32,000  Level Memphis Center
Thu 08:55:05 PM 35.7069 -91.2928 253° West 356 410 32,000  Level Memphis Center
Thu 08:56:05 PM 35.6808 -91.4203 256° West 356 410 32,000  Level Memphis Center
Thu 08:57:05 PM 35.6631 -91.5222 258° West 356 410 32,000  Level Memphis Center
Thu 08:58:05 PM 35.6411 -91.6344 257° West 356 410 32,000  Level Memphis Center
Thu 08:59:05 PM 35.6172 -91.7464 255° West 356 410 32,000 650 Level Memphis Center
Thu 09:00:05 PM 35.5950 -91.8583 256° West 356 410 33,300 950 Climbing Memphis Center
Thu 09:01:05 PM 35.5500 -91.9544 240° Southwest 339 390 33,900 350 Climbing Memphis Center
Thu 09:02:05 PM 35.5008 -92.0503 238° Southwest 333 383 34,000 50 Climbing Memphis Center
Thu 09:03:05 PM 35.4556 -92.1439 239° Southwest 328 377 34,000  Level Memphis Center
Thu 09:04:05 PM 35.4064 -92.2394 238° Southwest 328 377 34,000  Level Memphis Center
Thu 09:05:05 PM 35.3589 -92.3300 237° Southwest 328 377 34,000  Level Memphis Center
Thu 09:06:05 PM 35.3117 -92.4231 238° Southwest 328 377 34,000  Level Memphis Center
Thu 09:07:05 PM 35.2642 -92.5161 238° Southwest 328 377 34,000  Level Memphis Center
Thu 09:08:05 PM 35.2167 -92.6114 239° Southwest 328 377 34,000  Level Memphis Center
Thu 09:09:05 PM 35.1647 -92.7117 238° Southwest 328 377 34,000  Level Memphis Center
Thu 09:10:05 PM 35.1147 -92.8067 237° Southwest 334 384 34,000  Level Memphis Center
Thu 09:11:05 PM 35.0669 -92.8992 238° Southwest 334 384 34,000  Level Memphis Center
Thu 09:12:05 PM 35.0192 -92.9942 238° Southwest 334 384 34,000  Level Memphis Center
Thu 09:13:05 PM 34.9733 -93.0864 239° Southwest 334 384 34,000  Level Memphis Center
Thu 09:14:05 PM 34.9233 -93.1786 237° Southwest 334 384 34,000  Level Memphis Center
Thu 09:15:05 PM 34.8775 -93.2681 238° Southwest 334 384 34,000  Level Memphis Center
Thu 09:16:05 PM 34.8294 -93.3625 238° Southwest 334 384 34,000  Level Memphis Center
Thu 09:17:05 PM 34.7814 -93.4519 237° Southwest 329 379 34,000  Level Memphis Center
Thu 09:19:15 PM 34.6864 -93.6458 239° Southwest 342 394 34,000  Level Fort Worth Center
Thu 09:20:15 PM 34.6389 -93.7336 237° Southwest 332 382 34,000  Level Fort Worth Center
Thu 09:21:15 PM 34.5914 -93.8214 237° Southwest 322 371 34,000  Level Fort Worth Center
Thu 09:22:15 PM 34.5439 -93.9117 237° Southwest 322 371 34,000  Level Fort Worth Center
Thu 09:23:15 PM 34.4942 -94.0019 236° Southwest 327 376 34,000  Level Fort Worth Center
Thu 09:24:15 PM 34.4486 -94.0944 239° Southwest 327 376 34,000  Level Fort Worth Center
Thu 09:25:15 PM 34.3989 -94.1844 236° Southwest 327 376 34,000  Level Fort Worth Center
Thu 09:26:15 PM 34.3531 -94.2692 237° Southwest 327 376 34,000  Level Fort Worth Center
Thu 09:27:15 PM 34.3053 -94.3614 238° Southwest 327 376 34,000  Level Fort Worth Center
Thu 09:28:15 PM 34.2575 -94.4511 237° Southwest 321 369 34,000  Level Fort Worth Center
Thu 09:29:15 PM 34.2094 -94.5406 237° Southwest 321 369 34,000  Level Fort Worth Center
Thu 09:30:15 PM 34.1614 -94.6275 236° Southwest 321 369 34,000  Level Fort Worth Center
Thu 09:31:15 PM 34.1131 -94.7142 236° Southwest 321 369 34,000  Level Fort Worth Center
Thu 09:32:15 PM 34.0669 -94.8033 238° Southwest 321 369 34,000  Level Fort Worth Center
Thu 09:33:15 PM 34.0167 -94.8903 235° Southwest 321 369 34,000  Level Fort Worth Center
Thu 09:34:15 PM 33.9722 -94.9742 237° Southwest 316 364 34,000  Level Fort Worth Center
Thu 09:35:15 PM 33.9239 -95.0631 237° Southwest 316 364 34,000  Level Fort Worth Center
Thu 09:36:15 PM 33.8756 -95.1519 237° Southwest 316 364 34,000  Level Fort Worth Center
Thu 09:37:15 PM 33.8269 -95.2381 236° Southwest 316 364 34,000  Level Fort Worth Center
Thu 09:38:15 PM 33.7803 -95.3244 237° Southwest 316 364 34,000  Level Fort Worth Center
Thu 09:39:15 PM 33.7339 -95.4103 237° Southwest 316 364 34,000  Level Fort Worth Center
Thu 09:40:15 PM 33.6850 -95.4964 236° Southwest 310 357 34,000  Level Fort Worth Center
Thu 09:41:15 PM 33.6361 -95.5822 236° Southwest 310 357 34,000  Level Fort Worth Center
Thu 09:42:15 PM 33.5917 -95.6703 239° Southwest 310 357 34,000  Level Fort Worth Center
Thu 09:43:15 PM 33.5406 -95.7586 235° Southwest 315 362 34,000  Level Fort Worth Center
Thu 09:44:15 PM 33.4917 -95.8442 236° Southwest 315 362 34,000  Level Fort Worth Center
Thu 09:45:15 PM 33.4383 -95.9397 236° Southwest 315 362 34,000  Level Fort Worth Center
Thu 09:46:15 PM 33.3894 -96.0278 236° Southwest 315 362 34,000  Level Fort Worth Center
Thu 09:47:15 PM 33.3403 -96.1131 235° Southwest 315 362 34,000  Level Fort Worth Center
Thu 09:48:15 PM 33.2931 -96.2006 237° Southwest 315 362 34,000  Level Fort Worth Center
Thu 09:49:15 PM 33.2439 -96.2858 235° Southwest 315 362 34,000  Level Fort Worth Center
Thu 09:50:15 PM 33.1944 -96.3683 234° Southwest 310 357 34,000  Level Fort Worth Center
Thu 09:51:15 PM 33.1092 -96.4039 199° South 310 357 34,000  Level Fort Worth Center
Thu 09:52:15 PM 33.0111 -96.4200 188° South 327 376 34,000  Level Fort Worth Center
Thu 09:53:15 PM 32.9256 -96.4383 190° South 344 396 34,000  Level Fort Worth Center
Thu 09:54:15 PM 32.8278 -96.4542 188° South 354 407 34,000  Level Fort Worth Center
Thu 09:55:15 PM 32.7317 -96.4725 189° South 354 407 34,000  Level Fort Worth Center
Thu 09:56:15 PM 32.6358 -96.4908 189° South 348 400 34,000  Level Fort Worth Center
Thu 09:57:15 PM 32.5400 -96.5089 189° South 353 406 34,000  Level Fort Worth Center
Thu 09:58:15 PM 32.4336 -96.5297 189° South 353 406 34,000  Level Fort Worth Center
Thu 09:59:15 PM 32.3356 -96.5456 188° South 353 406 34,000  Level Fort Worth Center
Thu 10:00:15 PM 32.2375 -96.5636 189° South 353 406 34,000  Level Fort Worth Center
Thu 10:01:15 PM 32.1417 -96.5842 190° South 353 406 34,000  Level Fort Worth Center
Thu 10:02:15 PM 32.0417 -96.6022 189° South 359 413 34,000  Level Fort Worth Center
Thu 10:03:15 PM 31.9458 -96.6200 189° South 359 413 34,000  Level Fort Worth Center
Thu 10:04:15 PM 31.8497 -96.6406 190° South 354 407 34,000  Level Fort Worth Center
Thu 10:06:21 PM 31.6492 -96.6733 188° South 359 413 34,000  Level Houston Center
Thu 10:07:23 PM 31.5511 -96.6928 190° South 355 409 34,000  Level Houston Center
Thu 10:08:24 PM 31.4456 -96.6917 179° South 374 430 34,000  Level Houston Center
Thu 10:09:26 PM 31.3342 -96.6469 161° South 413 475 34,000 -387 Level Houston Center
Thu 10:10:28 PM 31.2231 -96.6028 161° South 416 479 33,200 -1,610 Descending Houston Center
Thu 10:11:29 PM 31.1164 -96.5603 161° South 403 464 30,700 -2,341 Descending Houston Center
Thu 10:12:31 PM 31.0128 -96.5203 162° South 389 448 28,400 -2,146 Descending Houston Center
Thu 10:13:32 PM 30.9144 -96.4814 161° South 372 428 26,300 -2,195 Descending Houston Center
Thu 10:14:34 PM 30.8028 -96.4383 162° South 359 413 23,900 -2,195 Descending Houston Center
Thu 10:15:35 PM 30.7056 -96.4000 161° South 362 417 21,800 -2,019 Descending Houston Center
Thu 10:16:21 PM 30.6372 -96.3731 161° South 359 413 20,300 -1,935 Descending Houston Center
Thu 10:16:37 PM 30.6122 -96.3625 160° South 351 404 19,800 -2,129 Descending Houston Center
Thu 10:16:52 PM 30.5853 -96.3544 166° South 350 403 19,200 -1,967 Descending Houston Center
Thu 10:17:38 PM 30.5225 -96.3283 160° South 337 388 17,800 -1,778 Descending Houston Center
Thu 10:18:40 PM 30.4356 -96.2956 162° South 327 376 16,000 -1,805 Descending Houston Center
Thu 10:19:41 PM 30.3508 -96.2628 162° South 319 367 14,100 -1,854 Descending Houston Center
Thu 10:20:43 PM 30.2664 -96.2289 161° South 319 367 12,200 -1,442 Descending Houston Center
Thu 10:21:50 PM 30.1686 -96.1881 160° South 313 360 11,000 -585 Descending Houston Center
Thu 10:22:46 PM 30.0947 -96.1481 155° Southeast 317 365 11,000  Level Houston Center
Thu 10:23:47 PM 30.0139 -96.1044 155° Southeast 320 368 11,000  Level Houston Center
Thu 10:24:48 PM 29.9322 -96.0611 155° Southeast 321 369 11,000  Level Houston Center
Thu 10:25:50 PM 29.8506 -96.0175 155° Southeast 322 371 11,000  Level Houston Center
Thu 10:26:51 PM 29.7753 -95.9775 155° Southeast 317 365 11,000 -576 Level Houston Center
Thu 10:27:55 PM 29.7139 -95.8808 126° Southeast 310 357 9,800 -1,268 Descending Houston Center
Thu 10:28:54 PM 29.6650 -95.8008 125° Southeast 311 358 8,400 -1,426 Descending Houston Center
Thu 10:29:57 PM 29.6156 -95.7192 125° Southeast 292 336 6,900 -1,415 Descending Houston Center
Thu 10:30:57 PM 29.5892 -95.6333 109° East 279 321 5,500 -1,339 Descending Houston Center
Thu 10:31:58 PM 29.5622 -95.5453 109° East 300 345 4,200 -885 Descending Houston Center
Thu 10:32:59 PM 29.5508 -95.4650 99° East 241 277 3,700 -541 Descending Houston Center
Thu 10:34:00 PM 29.5508 -95.3978 90° East 202 232 3,100 -934 Descending Houston Center
Thu 10:35:01 PM 29.5722 -95.3567 59° Northeast 141 162 1,800 -934 Descending Houston Center
Thu 10:36:02 PM 29.6031 -95.3242 43° Northeast 138 159 1,200 -689 Descending Houston Center
Thu 10:37:03 PM 29.6278 -95.2972 43° Northeast 132 152 400 -524 Descending Houston Center
Thu 10:38:08 PM 29.6547 -95.2692 42° Northeast 134 154 100 -277 Descending Houston Center

Login

Don't have an account? Register now (free) for customized features, flight alerts, and more!